Fort Smith, AR

8:13 AM CDT on August 05, 2015 (GMT -0500)
LCEM - Arkoma Elem. School | | Change Station
CLOSE
Current Station
Personal Weather Station
Location: Arkoma, OK
Elevation: 597 ft
Nearby Weather Stations

Elev 597 ft 35.35 °N, 94.44 °W | Updated 3 seconds ago

Overcast
Overcast
78.1 °F
Feels Like 81 °F
N
4.0
Wind Variable Wind from NE
Gusts 6.0 mph

Today
High -- | Low -- °F
--% Chance of Precip.
Yesterday
High -- | Low -- °F
Precip. -- in
6:29 AM 8:17 PM
Waning Gibbous, 67% visible
Pressure 29.92 in
Visibility 10.0 miles
Clouds Few 9000 ft
Heat Index 81 °F
Dew Point 73 °F
Humidity 84%
Rainfall 0.00 in
Snow Depth Not available.
UV 12.2 out of 12
Pollen 5.20 out of 12
Air Quality Not available.
Flu Activity Not available.
METAR KFSM 051253Z 05005KT 10SM FEW090 26/21 A2994 RMK AO2 SLP132 T02560211

More Conditions Fewer Conditions

Pressure 29.92 in
Visibility 10.0 miles
Clouds Few 9000 ft
Heat Index 81 °F
Dew Point 73 °F
Humidity 84%
Rainfall 0.00 in
Snow Depth Not available.
UV 12.2 out of 12
Pollen 5.20 out of 12
Air Quality Not available.
Flu Activity Not available.
METAR KFSM 051253Z 05005KT 10SM FEW090 26/21 A2994 RMK AO2 SLP132 T02560211

More Conditions Fewer Conditions

Nowcast | as of 6:05 am CDT on August 5, 2015

At 6:05 am...National Weather Service Doppler radar detected widely scattered showers and thunderstorms over Craig and Ottawa counties ...Moving east at 20 mph. Through 7:00 am...widely scattered showers and thunderstorms will continue over Craig and Ottawa counties. Brief heavy rain and dangerous lightning will be possible with these storms. Additional showers and thunderstorms will move into far northeast Oklahoma between 7 and 8 am. Some of these storms could be severe near the Oklahoma...Kansas state line with quarter size hail and damaging winds.

×

10-Day Weather Forecast

×

Almanac

Astronomy

Aug. 05, 2015 Rise Set
Actual Time
Civil Twilight
Nautical Twilight
Astronomical Twilight
Moon
Length of Visible Light
Length of Day
Tomorrow will be .
, % of the Moon is Illuminated

Today's Extremes

State Highs State Lows

Community

WunderPhotos

Upload Photos

1,844,180 photos uploaded!

WunderBlogs® & News

Nearby

Air Quality

  Air Quality AQ Index Pollutant
Not available.

Snow Depth

Station Depth Elevation

Earthquake Activity

City Distance Mag. Time & Date
Minimum magnitude displayed is 2.5.

Coastal Water Temperatures

Place Temperature

Stations

Nearby Weather Stations

Station Location Temp. Windchill Dew Point Humidity Wind Precip. Elev Updated Type